Map

Track Data

SID SEASON NUMBER BASIN SUBBASIN NAME ISO_TIME NATURE LAT LON WMO_WIND WMO_PRES WMO_AGENCY TRACK_TYPE DIST2LAND LANDFALL IFLAG USA_AGENCY USA_ATCF_ID USA_LAT USA_LON USA_RECORD USA_STATUS USA_WIND USA_PRES USA_SSHS USA_R34_NE USA_R34_SE USA_R34_SW USA_R34_NW USA_R50_NE USA_R50_SE USA_R50_SW USA_R50_NW USA_R64_NE USA_R64_SE USA_R64_SW USA_R64_NW USA_POCI USA_ROCI USA_RMW USA_EYE TOKYO_LAT TOKYO_LON TOKYO_GRADE TOKYO_WIND TOKYO_PRES TOKYO_R50_DIR TOKYO_R50_LONG TOKYO_R50_SHORT TOKYO_R30_DIR TOKYO_R30_LONG TOKYO_R30_SHORT TOKYO_LAND CMA_LAT CMA_LON CMA_CAT CMA_WIND CMA_PRES HKO_LAT HKO_LON HKO_CAT HKO_WIND HKO_PRES NEWDELHI_LAT NEWDELHI_LON NEWDELHI_GRADE NEWDELHI_WIND NEWDELHI_PRES NEWDELHI_CI NEWDELHI_DP NEWDELHI_POCI REUNION_LAT REUNION_LON REUNION_TYPE REUNION_WIND REUNION_PRES REUNION_TNUM REUNION_CI REUNION_RMW REUNION_R34_NE REUNION_R34_SE REUNION_R34_SW REUNION_R34_NW REUNION_R50_NE REUNION_R50_SE REUNION_R50_SW REUNION_R50_NW REUNION_R64_NE REUNION_R64_SE REUNION_R64_SW REUNION_R64_NW BOM_LAT BOM_LON BOM_TYPE BOM_WIND BOM_PRES BOM_TNUM BOM_CI BOM_RMW BOM_R34_NE BOM_R34_SE BOM_R34_SW BOM_R34_NW BOM_R50_NE BOM_R50_SE BOM_R50_SW BOM_R50_NW BOM_R64_NE BOM_R64_SE BOM_R64_SW BOM_R64_NW BOM_ROCI BOM_POCI BOM_EYE BOM_POS_METHOD BOM_PRES_METHOD NADI_LAT NADI_LON NADI_CAT NADI_WIND NADI_PRES WELLINGTON_LAT WELLINGTON_LON WELLINGTON_WIND WELLINGTON_PRES DS824_LAT DS824_LON DS824_STAGE DS824_WIND DS824_PRES TD9636_LAT TD9636_LON TD9636_STAGE TD9636_WIND TD9636_PRES TD9635_LAT TD9635_LON TD9635_WIND TD9635_PRES TD9635_ROCI NEUMANN_LAT NEUMANN_LON NEUMANN_CLASS NEUMANN_WIND NEUMANN_PRES MLC_LAT MLC_LON MLC_CLASS MLC_WIND MLC_PRES USA_GUST BOM_GUST BOM_GUST_PER REUNION_GUST REUNION_GUST_PER USA_SEAHGT USA_SEARAD_NE USA_SEARAD_SE USA_SEARAD_SW USA_SEARAD_NW STORM_SPEED STORM_DIR
1994223N15253 1994 65 EP MM ILEANA 1994-08-10 12:00:00 TS 14.5000 -107.500 25 1007 hurdat_epa main 599 579 O_____________ hurdat_epa EP111994 14.5000 -107.500 TD 25 1007 -1 5 356
1994223N15253 1994 65 EP MM ILEANA 1994-08-10 15:00:00 TS 14.7400 -107.502 main 579 550 P_____________ EP111994 14.7400 -107.502 TD 25 1007 -1 5 358
1994223N15253 1994 65 EP MM ILEANA 1994-08-10 18:00:00 TS 15.0000 -107.500 25 1007 hurdat_epa main 550 522 O_____________ hurdat_epa EP111994 15.0000 -107.500 TD 25 1007 -1 6 0
1994223N15253 1994 65 EP MM ILEANA 1994-08-10 21:00:00 TS 15.2925 -107.493 main 522 494 P_____________ EP111994 15.2925 -107.493 TD 25 1007 -1 6 1
1994223N15253 1994 65 EP MM ILEANA 1994-08-11 00:00:00 TS 15.6000 -107.500 25 1007 hurdat_epa main 494 467 O_____________ hurdat_epa EP111994 15.6000 -107.500 TD 25 1007 -1 6 356
1994223N15253 1994 65 EP MM ILEANA 1994-08-11 03:00:00 TS 15.9075 -107.528 main 467 447 P_____________ EP111994 15.9075 -107.528 TD 27 1006 -1 6 351
1994223N15253 1994 65 EP MM ILEANA 1994-08-11 06:00:00 TS 16.2000 -107.600 30 1006 hurdat_epa main 447 438 O_____________ hurdat_epa EP111994 16.2000 -107.600 TD 30 1006 -1 6 340
1994223N15253 1994 65 EP MM ILEANA 1994-08-11 09:00:00 TS 16.4500 -107.728 main 430 430 P_____________ EP111994 16.4500 -107.728 TD 32 1004 -1 6 330
1994223N15253 1994 65 EP MM ILEANA 1994-08-11 12:00:00 TS 16.7000 -107.900 35 1003 hurdat_epa main 430 422 O_____________ hurdat_epa EP111994 16.7000 -107.900 TS 35 1003 0 6 328
1994223N15253 1994 65 EP MM ILEANA 1994-08-11 15:00:00 TS 16.9849 -108.078 main 422 414 P_____________ EP111994 16.9849 -108.078 TS 40 1001 0 7 328
1994223N15253 1994 65 EP MM ILEANA 1994-08-11 18:00:00 TS 17.3000 -108.300 45 1000 hurdat_epa main 414 407 O_____________ hurdat_epa EP111994 17.3000 -108.300 TS 45 1000 0 8 323
1994223N15253 1994 65 EP MM ILEANA 1994-08-11 21:00:00 TS 17.6350 -108.585 main 419 413 P_____________ EP111994 17.6350 -108.585 TS 47 998 0 9 321
1994223N15253 1994 65 EP MM ILEANA 1994-08-12 00:00:00 TS 18.0000 -108.900 50 997 hurdat_epa main 421 415 O_____________ hurdat_epa EP111994 18.0000 -108.900 TS 50 997 0 9 322
1994223N15253 1994 65 EP MM ILEANA 1994-08-12 03:00:00 TS 18.3774 -109.185 main 427 427 P_____________ EP111994 18.3774 -109.185 TS 52 995 0 10 325
1994223N15253 1994 65 EP MM ILEANA 1994-08-12 06:00:00 TS 18.8000 -109.500 55 994 hurdat_epa main 436 413 O_____________ hurdat_epa EP111994 18.8000 -109.500 TS 55 994 0 11 324
1994223N15253 1994 65 EP MM ILEANA 1994-08-12 09:00:00 TS 19.2700 -109.878 main 402 348 P_____________ EP111994 19.2700 -109.878 TS 57 992 0 13 323
1994223N15253 1994 65 EP MM ILEANA 1994-08-12 12:00:00 TS 19.8000 -110.300 60 990 hurdat_epa main 348 299 O_____________ hurdat_epa EP111994 19.8000 -110.300 TS 60 990 0 14 324
1994223N15253 1994 65 EP MM ILEANA 1994-08-12 15:00:00 TS 20.3699 -110.735 main 288 245 P_____________ EP111994 20.3699 -110.735 TS 62 988 0 15 325
1994223N15253 1994 65 EP MM ILEANA 1994-08-12 18:00:00 TS 21.0000 -111.200 65 986 hurdat_epa main 245 219 O_____________ hurdat_epa EP111994 21.0000 -111.200 HU 65 986 1 16 326
1994223N15253 1994 65 EP MM ILEANA 1994-08-12 21:00:00 TS 21.6923 -111.678 main 220 213 P_____________ EP111994 21.6923 -111.678 HU 65 986 1 17 326
1994223N15253 1994 65 EP MM ILEANA 1994-08-13 00:00:00 TS 22.4000 -112.200 65 987 hurdat_epa main 218 191 O_____________ hurdat_epa EP111994 22.4000 -112.200 HU 65 987 1 17 324
1994223N15253 1994 65 EP MM ILEANA 1994-08-13 03:00:00 TS 23.0723 -112.778 main 186 172 P_____________ EP111994 23.0723 -112.778 HU 62 988 0 17 320
1994223N15253 1994 65 EP MM ILEANA 1994-08-13 06:00:00 TS 23.7000 -113.400 60 989 hurdat_epa main 172 172 O_____________ hurdat_epa EP111994 23.7000 -113.400 TS 60 989 0 17 317
1994223N15253 1994 65 EP MM ILEANA 1994-08-13 09:00:00 TS 24.2870 -114.021 main 190 190 P_____________ EP111994 24.2870 -114.021 TS 57 991 0 16 313
1994223N15253 1994 65 EP MM ILEANA 1994-08-13 12:00:00 TS 24.8000 -114.700 55 993 hurdat_epa main 239 230 O_____________ hurdat_epa EP111994 24.8000 -114.700 TS 55 993 0 16 306
1994223N15253 1994 65 EP MM ILEANA 1994-08-13 15:00:00 TS 25.2298 -115.471 main 248 238 P_____________ EP111994 25.2298 -115.471 TS 52 995 0 17 299
1994223N15253 1994 65 EP MM ILEANA 1994-08-13 18:00:00 TS 25.6000 -116.300 50 997 hurdat_epa main 260 260 O_____________ hurdat_epa EP111994 25.6000 -116.300 TS 50 997 0 17 297
1994223N15253 1994 65 EP MM ILEANA 1994-08-13 21:00:00 TS 25.9795 -117.135 main 281 281 P_____________ EP111994 25.9795 -117.135 TS 45 999 0 17 295
1994223N15253 1994 65 EP MM ILEANA 1994-08-14 00:00:00 TS 26.3000 -118.000 40 1002 hurdat_epa main 335 335 O_____________ hurdat_epa EP111994 26.3000 -118.000 TS 40 1002 0 17 290
1994223N15253 1994 65 EP MM ILEANA 1994-08-14 03:00:00 TS 26.5369 -118.885 main 408 408 P_____________ EP111994 26.5369 -118.885 TS 35 1004 0 17 284
1994223N15253 1994 65 EP MM ILEANA 1994-08-14 06:00:00 TS 26.7000 -119.800 30 1007 hurdat_epa main 487 487 O_____________ hurdat_epa EP111994 26.7000 -119.800 TD 30 1007 -1 17 280
1994223N15253 1994 65 EP MM ILEANA 1994-08-14 09:00:00 TS 26.8222 -120.750 main 581 581 P_____________ EP111994 26.8222 -120.750 TD 27 1008 -1 17 277
1994223N15253 1994 65 EP MM ILEANA 1994-08-14 12:00:00 TS 26.9000 -121.700 25 1009 hurdat_epa main 666 666 O_____________ hurdat_epa EP111994 26.9000 -121.700 TD 25 1009 -1 17 275
1994223N15253 1994 65 EP MM ILEANA 1994-08-14 15:00:00 TS 26.9559 -122.612 main 738 738 P_____________ EP111994 26.9559 -122.612 TD 25 1010 -1 16 274
1994223N15253 1994 65 EP MM ILEANA 1994-08-14 18:00:00 TS 27.0000 -123.500 25 1012 hurdat_epa main 818 O_____________ hurdat_epa EP111994 27.0000 -123.500 TD 25 1012 -1 16 273

About IBTrACS Database

This database is a web-friendly format of International Best Track Archive for Climate Stewardship (IBTrACS), a global best track data archive curated by NOAA dating back to 1842.

Updated: 2021-12-03